sensor_id;sensor_type;location;lat;lon;timestamp;pressure;altitude;pressure_sealevel;temperature;humidity
65359;BME280;52491;45.900;6.346;2023-05-09T00:00:33;94067.41;;;25.30;39.32
65359;BME280;52491;45.900;6.346;2023-05-09T00:02:58;94075.41;;;25.30;39.12
65359;BME280;52491;45.900;6.346;2023-05-09T00:05:24;94072.19;;;25.28;39.03
65359;BME280;52491;45.900;6.346;2023-05-09T00:07:49;94071.13;;;25.29;38.69
65359;BME280;52491;45.900;6.346;2023-05-09T00:10:15;94077.53;;;25.28;38.75
65359;BME280;52491;45.900;6.346;2023-05-09T00:12:41;94074.88;;;25.28;38.76
65359;BME280;52491;45.900;6.346;2023-05-09T00:15:08;94066.06;;;25.27;39.00
65359;BME280;52491;45.900;6.346;2023-05-09T00:17:34;94073.28;;;25.27;38.77
65359;BME280;52491;45.900;6.346;2023-05-09T00:20:08;94078.31;;;25.28;38.56
65359;BME280;52491;45.900;6.346;2023-05-09T00:22:37;94071.41;;;25.27;38.78
65359;BME280;52491;45.900;6.346;2023-05-09T00:25:03;94069.53;;;25.28;38.66
65359;BME280;52491;45.900;6.346;2023-05-09T00:27:28;94074.06;;;25.27;38.59
65359;BME280;52491;45.900;6.346;2023-05-09T00:29:55;94067.66;;;25.28;38.28
65359;BME280;52491;45.900;6.346;2023-05-09T00:32:20;94065.25;;;25.27;38.51
65359;BME280;52491;45.900;6.346;2023-05-09T00:34:46;94059.09;;;25.26;38.33
65359;BME280;52491;45.900;6.346;2023-05-09T00:37:12;94057.25;;;25.27;38.31
65359;BME280;52491;45.900;6.346;2023-05-09T00:39:37;94051.09;;;25.26;38.39
65359;BME280;52491;45.900;6.346;2023-05-09T00:42:03;94047.63;;;25.26;38.42
65359;BME280;52491;45.900;6.346;2023-05-09T00:44:29;94048.44;;;25.26;38.52
65359;BME280;52491;45.900;6.346;2023-05-09T00:46:54;94048.19;;;25.28;38.51
65359;BME280;52491;45.900;6.346;2023-05-09T00:49:20;94042.84;;;25.28;38.15
65359;BME280;52491;45.900;6.346;2023-05-09T00:51:46;94048.97;;;25.28;38.28
65359;BME280;52491;45.900;6.346;2023-05-09T00:54:12;94046.31;;;25.28;38.03
65359;BME280;52491;45.900;6.346;2023-05-09T00:56:38;94052.72;;;25.27;38.50
65359;BME280;52491;45.900;6.346;2023-05-09T00:59:04;94037.50;;;25.28;37.95
65359;BME280;52491;45.900;6.346;2023-05-09T01:01:30;94042.03;;;25.27;38.26
65359;BME280;52491;45.900;6.346;2023-05-09T01:03:57;94039.63;;;25.26;38.37
65359;BME280;52491;45.900;6.346;2023-05-09T01:09:39;94038.03;;;25.25;38.01
65359;BME280;52491;45.900;6.346;2023-05-09T01:15:10;94021.75;;;25.21;38.13
65359;BME280;52491;45.900;6.346;2023-05-09T01:22:47;94020.94;;;25.20;38.30
65359;BME280;52491;45.900;6.346;2023-05-09T01:28:11;94004.94;;;25.20;38.12
65359;BME280;52491;45.900;6.346;2023-05-09T01:30:41;94007.88;;;25.19;37.96
65359;BME280;52491;45.900;6.346;2023-05-09T01:33:09;94006.78;;;25.20;37.68
65359;BME280;52491;45.900;6.346;2023-05-09T01:35:39;93998.78;;;25.20;38.03
65359;BME280;52491;45.900;6.346;2023-05-09T01:38:11;94004.94;;;25.20;37.52
65359;BME280;52491;45.900;6.346;2023-05-09T01:40:39;94003.34;;;25.19;37.62
65359;BME280;52491;45.900;6.346;2023-05-09T01:43:07;93995.31;;;25.19;37.98
65359;BME280;52491;45.900;6.346;2023-05-09T01:45:35;93994.78;;;25.17;37.90
65359;BME280;52491;45.900;6.346;2023-05-09T01:48:04;93996.41;;;25.18;37.50
65359;BME280;52491;45.900;6.346;2023-05-09T01:50:33;93987.31;;;25.19;37.57
65359;BME280;52491;45.900;6.346;2023-05-09T01:53:00;93990.28;;;25.18;37.71
65359;BME280;52491;45.900;6.346;2023-05-09T01:55:29;93995.59;;;25.18;37.88
65359;BME280;52491;45.900;6.346;2023-05-09T01:57:57;94000.13;;;25.17;37.75
65359;BME280;52491;45.900;6.346;2023-05-09T02:00:24;93994.78;;;25.17;37.76
65359;BME280;52491;45.900;6.346;2023-05-09T02:02:53;93992.94;;;25.18;37.53
65359;BME280;52491;45.900;6.346;2023-05-09T02:05:20;93987.06;;;25.16;37.45
65359;BME280;52491;45.900;6.346;2023-05-09T02:07:47;93995.84;;;25.16;37.75
65359;BME280;52491;45.900;6.346;2023-05-09T02:10:14;93993.19;;;25.16;37.26
65359;BME280;52491;45.900;6.346;2023-05-09T02:12:40;93990.78;;;25.15;37.29
65359;BME280;52491;45.900;6.346;2023-05-09T02:15:06;93987.06;;;25.16;37.42
65359;BME280;52491;45.900;6.346;2023-05-09T02:17:33;93981.97;;;25.14;37.26
65359;BME280;52491;45.900;6.346;2023-05-09T02:19:58;93987.06;;;25.16;37.74
65359;BME280;52491;45.900;6.346;2023-05-09T02:22:24;93990.78;;;25.15;37.65
65359;BME280;52491;45.900;6.346;2023-05-09T02:24:50;93992.66;;;25.14;37.20
65359;BME280;52491;45.900;6.346;2023-05-09T02:27:16;93995.31;;;25.14;37.64
65359;BME280;52491;45.900;6.346;2023-05-09T02:29:55;93991.59;;;25.15;37.23
65359;BME280;52491;45.900;6.346;2023-05-09T02:32:24;93994.50;;;25.14;37.47
65359;BME280;52491;45.900;6.346;2023-05-09T02:34:52;93988.34;;;25.13;37.28
65359;BME280;52491;45.900;6.346;2023-05-09T02:37:19;93985.69;;;25.13;37.44
65359;BME280;52491;45.900;6.346;2023-05-09T02:39:46;93989.44;;;25.12;37.45
65359;BME280;52491;45.900;6.346;2023-05-09T02:42:14;93986.47;;;25.14;37.02
65359;BME280;52491;45.900;6.346;2023-05-09T02:44:40;93995.56;;;25.13;37.41
65359;BME280;52491;45.900;6.346;2023-05-09T02:47:06;93992.09;;;25.12;37.26
65359;BME280;52491;45.900;6.346;2023-05-09T02:49:32;93989.44;;;25.12;37.06
65359;BME280;52491;45.900;6.346;2023-05-09T02:51:58;93983.28;;;25.12;37.02
65359;BME280;52491;45.900;6.346;2023-05-09T02:54:23;93983.28;;;25.12;37.23
65359;BME280;52491;45.900;6.346;2023-05-09T02:56:49;93977.94;;;25.12;36.92
65359;BME280;52491;45.900;6.346;2023-05-09T02:59:17;93989.44;;;25.12;37.26
65359;BME280;52491;45.900;6.346;2023-05-09T03:01:42;93998.47;;;25.11;37.03
65359;BME280;52491;45.900;6.346;2023-05-09T03:04:08;93997.44;;;25.12;36.94
65359;BME280;52491;45.900;6.346;2023-05-09T03:06:34;93990.47;;;25.11;37.16
65359;BME280;52491;45.900;6.346;2023-05-09T03:09:00;93991.56;;;25.10;37.21
65359;BME280;52491;45.900;6.346;2023-05-09T03:11:26;93994.22;;;25.10;37.16
65359;BME280;52491;45.900;6.346;2023-05-09T03:13:52;93988.88;;;25.10;36.87
65359;BME280;52491;45.900;6.346;2023-05-09T03:16:18;93983.56;;;25.10;37.14
65359;BME280;52491;45.900;6.346;2023-05-09T03:18:44;93987.00;;;25.11;36.76
65359;BME280;52491;45.900;6.346;2023-05-09T03:21:10;93982.75;;;25.10;36.70
65359;BME280;52491;45.900;6.346;2023-05-09T03:23:37;93981.13;;;25.09;36.68
65359;BME280;52491;45.900;6.346;2023-05-09T03:26:03;93981.94;;;25.09;37.04
65359;BME280;52491;45.900;6.346;2023-05-09T03:28:28;93973.13;;;25.09;36.62
65359;BME280;52491;45.900;6.346;2023-05-09T03:30:54;93980.34;;;25.08;36.95
65359;BME280;52491;45.900;6.346;2023-05-09T03:33:20;93983.81;;;25.09;36.72
65359;BME280;52491;45.900;6.346;2023-05-09T03:35:45;93977.66;;;25.08;37.15
65359;BME280;52491;45.900;6.346;2023-05-09T03:38:11;93983.81;;;25.09;37.10
65359;BME280;52491;45.900;6.346;2023-05-09T03:40:36;93974.22;;;25.08;36.65
65359;BME280;52491;45.900;6.346;2023-05-09T03:43:02;93974.22;;;25.08;36.59
65359;BME280;52491;45.900;6.346;2023-05-09T03:45:28;93977.66;;;25.08;36.68
65359;BME280;52491;45.900;6.346;2023-05-09T03:47:53;93975.00;;;25.08;36.62
65359;BME280;52491;45.900;6.346;2023-05-09T03:50:19;93986.47;;;25.09;36.60
65359;BME280;52491;45.900;6.346;2023-05-09T03:52:45;93985.97;;;25.07;36.88
65359;BME280;52491;45.900;6.346;2023-05-09T03:55:10;93985.13;;;25.06;37.00
65359;BME280;52491;45.900;6.346;2023-05-09T03:57:36;93977.94;;;25.07;36.71
65359;BME280;52491;45.900;6.346;2023-05-09T04:00:03;93984.34;;;25.06;36.60
65359;BME280;52491;45.900;6.346;2023-05-09T04:02:32;93987.00;;;25.06;36.51
65359;BME280;52491;45.900;6.346;2023-05-09T04:04:57;93979.78;;;25.06;36.46
65359;BME280;52491;45.900;6.346;2023-05-09T04:07:23;93980.88;;;25.05;36.71
65359;BME280;52491;45.900;6.346;2023-05-09T04:09:49;93984.34;;;25.06;36.69
65359;BME280;52491;45.900;6.346;2023-05-09T04:12:14;93981.94;;;25.04;36.85
65359;BME280;52491;45.900;6.346;2023-05-09T04:14:40;93982.75;;;25.05;36.74
65359;BME280;52491;45.900;6.346;2023-05-09T04:17:05;93979.28;;;25.04;36.51
65359;BME280;52491;45.900;6.346;2023-05-09T04:19:31;93981.94;;;25.04;36.44
65359;BME280;52491;45.900;6.346;2023-05-09T04:21:57;93982.75;;;25.05;36.75
65359;BME280;52491;45.900;6.346;2023-05-09T04:24:22;93978.44;;;25.04;36.83
65359;BME280;52491;45.900;6.346;2023-05-09T04:26:48;93971.28;;;25.04;36.64
65359;BME280;52491;45.900;6.346;2023-05-09T04:29:13;93971.28;;;25.04;36.19
65359;BME280;52491;45.900;6.346;2023-05-09T04:31:39;93976.59;;;25.04;36.45
65359;BME280;52491;45.900;6.346;2023-05-09T04:34:04;93981.13;;;25.04;36.51
65359;BME280;52491;45.900;6.346;2023-05-09T04:36:30;93977.66;;;25.03;36.24
65359;BME280;52491;45.900;6.346;2023-05-09T04:38:58;93977.66;;;25.03;36.51
65359;BME280;52491;45.900;6.346;2023-05-09T04:41:23;93974.19;;;25.02;36.50
65359;BME280;52491;45.900;6.346;2023-05-09T04:43:49;93970.19;;;25.05;36.51
65359;BME280;52491;45.900;6.346;2023-05-09T04:46:16;93969.41;;;25.05;36.60
65359;BME280;52491;45.900;6.346;2023-05-09T04:48:42;93964.31;;;25.03;36.78
65359;BME280;52491;45.900;6.346;2023-05-09T04:51:07;93962.44;;;25.04;36.50
65359;BME280;52491;45.900;6.346;2023-05-09T04:53:33;93962.72;;;25.02;36.35
65359;BME280;52491;45.900;6.346;2023-05-09T04:55:59;93952.06;;;25.02;36.81
65359;BME280;52491;45.900;6.346;2023-05-09T04:58:24;93949.38;;;25.02;36.81
65359;BME280;52491;45.900;6.346;2023-05-09T05:00:51;93943.25;;;25.01;36.42
65359;BME280;52491;45.900;6.346;2023-05-09T05:03:17;93944.06;;;25.02;36.63
65359;BME280;52491;45.900;6.346;2023-05-09T05:05:43;93949.09;;;25.04;36.66
65359;BME280;52491;45.900;6.346;2023-05-09T05:08:09;93941.09;;;25.04;36.49
65359;BME280;52491;45.900;6.346;2023-05-09T05:10:35;93947.28;;;25.04;36.55
65359;BME280;52491;45.900;6.346;2023-05-09T05:13:01;93939.28;;;25.04;36.80
65359;BME280;52491;45.900;6.346;2023-05-09T05:15:26;93943.53;;;25.05;37.02
65359;BME280;52491;45.900;6.346;2023-05-09T05:17:52;93945.13;;;25.06;37.18
65359;BME280;52491;45.900;6.346;2023-05-09T05:20:18;93953.41;;;25.05;36.88
65359;BME280;52491;45.900;6.346;2023-05-09T05:22:44;93954.19;;;25.05;36.82
65359;BME280;52491;45.900;6.346;2023-05-09T05:25:09;93950.44;;;25.06;36.94
65359;BME280;52491;45.900;6.346;2023-05-09T05:27:35;93941.94;;;25.04;37.14
65359;BME280;52491;45.900;6.346;2023-05-09T05:30:01;93942.72;;;25.05;36.96
65359;BME280;52491;45.900;6.346;2023-05-09T05:32:27;93941.94;;;25.04;36.85
65359;BME280;52491;45.900;6.346;2023-05-09T05:34:54;93944.84;;;25.02;36.46
65359;BME280;52491;45.900;6.346;2023-05-09T05:37:22;93942.72;;;24.99;36.58
65359;BME280;52491;45.900;6.346;2023-05-09T05:39:49;93946.19;;;25.00;36.59
65359;BME280;52491;45.900;6.346;2023-05-09T05:42:16;93939.78;;;25.01;36.92
65359;BME280;52491;45.900;6.346;2023-05-09T05:44:43;93946.72;;;25.02;37.17
65359;BME280;52491;45.900;6.346;2023-05-09T05:47:08;93936.84;;;25.02;36.90
65359;BME280;52491;45.900;6.346;2023-05-09T05:49:34;93936.84;;;25.02;36.84
65359;BME280;52491;45.900;6.346;2023-05-09T05:51:59;93935.78;;;25.04;37.20
65359;BME280;52491;45.900;6.346;2023-05-09T05:54:25;93925.38;;;25.02;37.08
65359;BME280;52491;45.900;6.346;2023-05-09T05:56:50;93933.94;;;25.04;36.97
65359;BME280;52491;45.900;6.346;2023-05-09T05:59:16;93933.94;;;25.04;37.11
65359;BME280;52491;45.900;6.346;2023-05-09T06:01:41;93932.31;;;25.03;37.23
65359;BME280;52491;45.900;6.346;2023-05-09T06:04:07;93930.44;;;25.04;36.73
65359;BME280;52491;45.900;6.346;2023-05-09T06:06:33;93927.78;;;25.04;37.00
65359;BME280;52491;45.900;6.346;2023-05-09T06:08:58;93923.25;;;25.04;37.24
65359;BME280;52491;45.900;6.346;2023-05-09T06:11:24;93924.31;;;25.03;36.96
65359;BME280;52491;45.900;6.346;2023-05-09T06:13:49;93923.25;;;25.04;36.99
65359;BME280;52491;45.900;6.346;2023-05-09T06:16:15;93914.44;;;25.04;37.01
65359;BME280;52491;45.900;6.346;2023-05-09T06:18:40;93908.31;;;25.03;36.75
65359;BME280;52491;45.900;6.346;2023-05-09T06:21:06;93910.97;;;25.03;36.91
65359;BME280;52491;45.900;6.346;2023-05-09T06:23:32;93904.03;;;25.02;37.08
65359;BME280;52491;45.900;6.346;2023-05-09T06:25:57;93911.78;;;25.04;36.68
65359;BME280;52491;45.900;6.346;2023-05-09T06:28:23;93904.59;;;25.04;37.06
65359;BME280;52491;45.900;6.346;2023-05-09T06:30:49;93899.75;;;25.01;37.10
65359;BME280;52491;45.900;6.346;2023-05-09T06:33:14;93892.31;;;25.03;36.76
65359;BME280;52491;45.900;6.346;2023-05-09T06:35:40;93893.91;;;25.04;36.92
65359;BME280;52491;45.900;6.346;2023-05-09T06:38:05;93885.09;;;25.04;37.02
65359;BME280;52491;45.900;6.346;2023-05-09T06:40:31;93876.28;;;25.03;36.76
65359;BME280;52491;45.900;6.346;2023-05-09T06:42:57;93869.38;;;25.02;36.87
65359;BME280;52491;45.900;6.346;2023-05-09T06:45:22;93862.97;;;25.03;36.76
65359;BME280;52491;45.900;6.346;2023-05-09T06:47:48;93863.75;;;25.04;36.89
65359;BME280;52491;45.900;6.346;2023-05-09T06:50:13;93858.41;;;25.04;36.69
65359;BME280;52491;45.900;6.346;2023-05-09T06:52:39;93857.63;;;25.03;36.79
65359;BME280;52491;45.900;6.346;2023-05-09T06:55:05;93854.97;;;25.03;36.81
65359;BME280;52491;45.900;6.346;2023-05-09T06:57:31;93853.09;;;25.04;36.66
65359;BME280;52491;45.900;6.346;2023-05-09T06:59:56;93852.28;;;25.03;36.66
65359;BME280;52491;45.900;6.346;2023-05-09T07:02:22;93855.75;;;25.04;36.74
65359;BME280;52491;45.900;6.346;2023-05-09T07:04:47;93851.25;;;25.04;37.06
65359;BME280;52491;45.900;6.346;2023-05-09T07:07:13;93844.28;;;25.03;36.76
65359;BME280;52491;45.900;6.346;2023-05-09T07:09:38;93837.91;;;25.04;37.05
65359;BME280;52491;45.900;6.346;2023-05-09T07:12:04;93833.63;;;25.03;36.92
65359;BME280;52491;45.900;6.346;2023-05-09T07:14:30;93837.09;;;25.04;36.77
65359;BME280;52491;45.900;6.346;2023-05-09T07:16:55;93835.25;;;25.04;36.95
65359;BME280;52491;45.900;6.346;2023-05-09T07:19:21;93828.28;;;25.03;36.83
65359;BME280;52491;45.900;6.346;2023-05-09T07:21:46;93836.03;;;25.05;36.82
65359;BME280;52491;45.900;6.346;2023-05-09T07:24:12;93831.50;;;25.05;36.79
65359;BME280;52491;45.900;6.346;2023-05-09T07:26:37;93827.25;;;25.04;37.07
65359;BME280;52491;45.900;6.346;2023-05-09T07:29:03;93824.56;;;25.04;36.85
65359;BME280;52491;45.900;6.346;2023-05-09T07:31:29;93825.38;;;25.05;37.07
65359;BME280;52491;45.900;6.346;2023-05-09T07:33:55;93820.03;;;25.05;37.16
65359;BME280;52491;45.900;6.346;2023-05-09T07:36:20;93819.22;;;25.04;36.62
65359;BME280;52491;45.900;6.346;2023-05-09T07:38:46;93819.75;;;25.06;36.61
65359;BME280;52491;45.900;6.346;2023-05-09T07:41:13;93813.91;;;25.04;37.09
65359;BME280;52491;45.900;6.346;2023-05-09T07:43:38;93815.50;;;25.05;37.11
65359;BME280;52491;45.900;6.346;2023-05-09T07:46:04;93798.69;;;25.05;36.89
65359;BME280;52491;45.900;6.346;2023-05-09T07:48:30;93806.41;;;25.06;36.78
65359;BME280;52491;45.900;6.346;2023-05-09T07:50:56;93793.34;;;25.05;37.09
65359;BME280;52491;45.900;6.346;2023-05-09T07:53:22;93783.47;;;25.05;36.78
65359;BME280;52491;45.900;6.346;2023-05-09T07:55:48;93781.91;;;25.04;36.91
65359;BME280;52491;45.900;6.346;2023-05-09T07:58:15;93780.81;;;25.05;36.73
65359;BME280;52491;45.900;6.346;2023-05-09T08:00:41;93777.34;;;25.05;37.08
65359;BME280;52491;45.900;6.346;2023-05-09T08:03:06;93772.81;;;25.05;37.12
65359;BME280;52491;45.900;6.346;2023-05-09T08:05:32;93773.59;;;25.06;37.16
65359;BME280;52491;45.900;6.346;2023-05-09T08:07:57;93767.22;;;25.07;36.84
65359;BME280;52491;45.900;6.346;2023-05-09T08:10:23;93757.59;;;25.06;36.65
65359;BME280;52491;45.900;6.346;2023-05-09T08:12:49;93756.81;;;25.05;36.77
65359;BME280;52491;45.900;6.346;2023-05-09T08:15:15;93750.41;;;25.06;36.80
65359;BME280;52491;45.900;6.346;2023-05-09T08:17:40;93747.72;;;25.06;36.68
65359;BME280;52491;45.900;6.346;2023-05-09T08:20:06;93739.72;;;25.06;37.06
65359;BME280;52491;45.900;6.346;2023-05-09T08:22:33;93737.06;;;25.06;36.90
65359;BME280;52491;45.900;6.346;2023-05-09T08:24:58;93737.06;;;25.06;36.85
65359;BME280;52491;45.900;6.346;2023-05-09T08:27:24;93731.19;;;25.09;36.75
65359;BME280;52491;45.900;6.346;2023-05-09T08:29:50;93728.00;;;25.07;36.67
65359;BME280;52491;45.900;6.346;2023-05-09T08:32:16;93725.06;;;25.09;36.99
65359;BME280;52491;45.900;6.346;2023-05-09T08:34:44;93722.38;;;25.09;36.77
65359;BME280;52491;45.900;6.346;2023-05-09T08:37:09;93725.34;;;25.07;36.83
65359;BME280;52491;45.900;6.346;2023-05-09T08:39:35;93720.50;;;25.09;37.05
65359;BME280;52491;45.900;6.346;2023-05-09T08:42:01;93718.13;;;25.08;37.05
65359;BME280;52491;45.900;6.346;2023-05-09T08:44:29;93716.25;;;25.08;36.94
65359;BME280;52491;45.900;6.346;2023-05-09T08:46:58;93713.59;;;25.08;36.92
65359;BME280;52491;45.900;6.346;2023-05-09T08:49:24;93712.78;;;25.08;37.06
65359;BME280;52491;45.900;6.346;2023-05-09T08:51:50;93705.59;;;25.08;36.87
65359;BME280;52491;45.900;6.346;2023-05-09T08:54:17;93708.25;;;25.08;36.94
65359;BME280;52491;45.900;6.346;2023-05-09T08:56:43;93705.59;;;25.08;36.61
65359;BME280;52491;45.900;6.346;2023-05-09T08:59:09;93696.50;;;25.09;37.03
65359;BME280;52491;45.900;6.346;2023-05-09T09:01:35;93693.03;;;25.09;36.78
65359;BME280;52491;45.900;6.346;2023-05-09T09:04:07;93681.31;;;25.10;37.03
65359;BME280;52491;45.900;6.346;2023-05-09T09:06:34;93674.91;;;25.11;36.98
65359;BME280;52491;45.900;6.346;2023-05-09T09:09:02;93678.38;;;25.11;36.46
65359;BME280;52491;45.900;6.346;2023-05-09T09:11:34;93673.81;;;25.12;36.72
65359;BME280;52491;45.900;6.346;2023-05-09T09:14:02;93674.66;;;25.12;36.87
65359;BME280;52491;45.900;6.346;2023-05-09T09:16:31;93665.81;;;25.12;36.83
65359;BME280;52491;45.900;6.346;2023-05-09T09:18:57;93655.16;;;25.12;36.94
65359;BME280;52491;45.900;6.346;2023-05-09T09:21:23;93651.44;;;25.13;36.82
65359;BME280;52491;45.900;6.346;2023-05-09T09:23:51;93645.00;;;25.14;36.80
65359;BME280;52491;45.900;6.346;2023-05-09T09:26:19;93638.63;;;25.15;37.02
65359;BME280;52491;45.900;6.346;2023-05-09T09:28:45;93638.38;;;25.16;37.07
65359;BME280;52491;45.900;6.346;2023-05-09T09:31:19;93631.69;;;25.19;36.63
65359;BME280;52491;45.900;6.346;2023-05-09T09:33:45;93629.28;;;25.17;36.89
65359;BME280;52491;45.900;6.346;2023-05-09T09:36:10;93633.56;;;25.18;36.95
65359;BME280;52491;45.900;6.346;2023-05-09T09:38:39;93633.28;;;25.20;36.66
65359;BME280;52491;45.900;6.346;2023-05-09T09:41:06;93632.47;;;25.19;36.60
65359;BME280;52491;45.900;6.346;2023-05-09T09:43:31;93623.69;;;25.19;36.74
65359;BME280;52491;45.900;6.346;2023-05-09T09:46:01;93615.69;;;25.19;36.62
65359;BME280;52491;45.900;6.346;2023-05-09T09:48:32;93614.59;;;25.20;36.95
65359;BME280;52491;45.900;6.346;2023-05-09T09:51:10;93611.38;;;25.23;36.85
65359;BME280;52491;45.900;6.346;2023-05-09T09:53:42;93604.72;;;25.20;36.90
65359;BME280;52491;45.900;6.346;2023-05-09T09:56:08;93606.34;;;25.21;36.76
65359;BME280;52491;45.900;6.346;2023-05-09T09:58:34;93605.81;;;25.19;37.02
65359;BME280;52491;45.900;6.346;2023-05-09T10:01:12;93599.91;;;25.22;36.49
65359;BME280;52491;45.900;6.346;2023-05-09T10:03:43;93584.69;;;25.23;36.67
65359;BME280;52491;45.900;6.346;2023-05-09T10:06:13;93583.91;;;25.22;36.84
65359;BME280;52491;45.900;6.346;2023-05-09T10:08:40;93579.38;;;25.23;36.48
65359;BME280;52491;45.900;6.346;2023-05-09T10:11:06;93570.56;;;25.22;36.83
65359;BME280;52491;45.900;6.346;2023-05-09T10:13:36;93567.63;;;25.24;36.67
65359;BME280;52491;45.900;6.346;2023-05-09T10:16:04;93562.31;;;25.24;36.37
65359;BME280;52491;45.900;6.346;2023-05-09T10:18:30;93555.34;;;25.23;37.05
65359;BME280;52491;45.900;6.346;2023-05-09T10:20:57;93555.34;;;25.23;36.31
65359;BME280;52491;45.900;6.346;2023-05-09T10:23:29;93553.50;;;25.23;36.65
65359;BME280;52491;45.900;6.346;2023-05-09T10:28:28;93552.44;;;25.25;36.90
65359;BME280;52491;45.900;6.346;2023-05-09T10:33:49;93542.84;;;25.23;36.58
65359;BME280;52491;45.900;6.346;2023-05-09T10:36:19;93540.97;;;25.24;36.67
65359;BME280;52491;45.900;6.346;2023-05-09T10:38:46;93534.84;;;25.23;36.66
65359;BME280;52491;45.900;6.346;2023-05-09T10:41:15;93539.09;;;25.25;36.51
65359;BME280;52491;45.900;6.346;2023-05-09T10:43:40;93527.63;;;25.24;36.49
65359;BME280;52491;45.900;6.346;2023-05-09T10:46:07;93524.16;;;25.23;36.75
65359;BME280;52491;45.900;6.346;2023-05-09T10:48:33;93513.50;;;25.23;36.55
65359;BME280;52491;45.900;6.346;2023-05-09T10:51:01;93512.66;;;25.23;36.84
65359;BME280;52491;45.900;6.346;2023-05-09T10:53:40;93518.28;;;25.27;36.39
65359;BME280;52491;45.900;6.346;2023-05-09T10:56:06;93515.06;;;25.25;36.72
65359;BME280;52491;45.900;6.346;2023-05-09T10:58:33;93519.06;;;25.27;36.29
65359;BME280;52491;45.900;6.346;2023-05-09T11:01:02;93519.31;;;25.26;36.82
65359;BME280;52491;45.900;6.346;2023-05-09T11:03:52;93514.00;;;25.26;36.19
65359;BME280;52491;45.900;6.346;2023-05-09T11:25:11;93488.91;;;25.27;37.08
65359;BME280;52491;45.900;6.346;2023-05-09T11:27:50;93493.19;;;25.28;36.76
65359;BME280;52491;45.900;6.346;2023-05-09T11:30:18;93488.63;;;25.28;37.07
65359;BME280;52491;45.900;6.346;2023-05-09T11:32:50;93482.25;;;25.29;36.65
65359;BME280;52491;45.900;6.346;2023-05-09T11:35:18;93486.75;;;25.29;36.69
65359;BME280;52491;45.900;6.346;2023-05-09T11:40:15;93485.69;;;25.30;37.14
65359;BME280;52491;45.900;6.346;2023-05-09T11:42:46;93475.81;;;25.30;36.92
65359;BME280;52491;45.900;6.346;2023-05-09T11:45:13;93480.38;;;25.30;37.32
65359;BME280;52491;45.900;6.346;2023-05-09T11:47:39;93484.91;;;25.29;37.10
65359;BME280;52491;45.900;6.346;2023-05-09T11:50:09;93480.84;;;25.32;37.31
65359;BME280;52491;45.900;6.346;2023-05-09T11:52:36;93476.59;;;25.31;37.32
65359;BME280;52491;45.900;6.346;2023-05-09T11:55:05;93481.94;;;25.31;37.21
65359;BME280;52491;45.900;6.346;2023-05-09T11:57:31;93480.84;;;25.32;37.08
65359;BME280;52491;45.900;6.346;2023-05-09T11:59:59;93481.94;;;25.31;37.32
65359;BME280;52491;45.900;6.346;2023-05-09T12:02:25;93481.16;;;25.30;37.41
65359;BME280;52491;45.900;6.346;2023-05-09T12:04:51;93487.28;;;25.31;37.40
65359;BME280;52491;45.900;6.346;2023-05-09T12:07:19;93485.13;;;25.33;37.48
65359;BME280;52491;45.900;6.346;2023-05-09T12:09:44;93481.94;;;25.31;37.14
65359;BME280;52491;45.900;6.346;2023-05-09T12:12:13;93481.16;;;25.30;37.08
65359;BME280;52491;45.900;6.346;2023-05-09T12:14:40;93479.28;;;25.31;37.30
65359;BME280;52491;45.900;6.346;2023-05-09T12:17:06;93478.19;;;25.32;37.14
65359;BME280;52491;45.900;6.346;2023-05-09T12:19:33;93479.81;;;25.33;37.62
65359;BME280;52491;45.900;6.346;2023-05-09T12:22:00;93479.81;;;25.33;37.42
65359;BME280;52491;45.900;6.346;2023-05-09T12:24:28;93480.59;;;25.33;36.90
65359;BME280;52491;45.900;6.346;2023-05-09T12:26:58;93480.59;;;25.33;36.92
65359;BME280;52491;45.900;6.346;2023-05-09T12:29:24;93469.91;;;25.33;37.00
65359;BME280;52491;45.900;6.346;2023-05-09T12:31:52;93482.47;;;25.33;37.18
65359;BME280;52491;45.900;6.346;2023-05-09T12:34:18;93488.59;;;25.33;37.16
65359;BME280;52491;45.900;6.346;2023-05-09T12:36:44;93511.81;;;25.33;37.08
65359;BME280;52491;45.900;6.346;2023-05-09T12:39:18;93503.81;;;25.33;37.19
65359;BME280;52491;45.900;6.346;2023-05-09T12:41:47;93511.03;;;25.32;37.07
65359;BME280;52491;45.900;6.346;2023-05-09T12:44:23;93513.41;;;25.34;37.48
65359;BME280;52491;45.900;6.346;2023-05-09T12:47:01;93534.75;;;25.34;37.07
65359;BME280;52491;45.900;6.346;2023-05-09T12:49:27;93535.31;;;25.31;37.41
65359;BME280;52491;45.900;6.346;2023-05-09T12:51:55;93537.97;;;25.31;37.24
65359;BME280;52491;45.900;6.346;2023-05-09T12:54:23;93540.66;;;25.31;37.38
65359;BME280;52491;45.900;6.346;2023-05-09T12:56:50;93536.09;;;25.31;37.30
65359;BME280;52491;45.900;6.346;2023-05-09T12:59:26;93536.09;;;25.31;37.31
65359;BME280;52491;45.900;6.346;2023-05-09T13:01:55;93527.31;;;25.31;37.52
65359;BME280;52491;45.900;6.346;2023-05-09T13:04:23;93540.13;;;25.29;37.32
65359;BME280;52491;45.900;6.346;2023-05-09T13:06:50;93533.72;;;25.30;37.71
65359;BME280;52491;45.900;6.346;2023-05-09T13:09:17;93526.50;;;25.30;37.21
65359;BME280;52491;45.900;6.346;2023-05-09T13:11:44;93529.19;;;25.30;37.21
65359;BME280;52491;45.900;6.346;2023-05-09T13:14:09;93526.50;;;25.30;37.45
65359;BME280;52491;45.900;6.346;2023-05-09T13:16:35;93519.31;;;25.31;37.31
65359;BME280;52491;45.900;6.346;2023-05-09T13:19:00;93518.50;;;25.30;37.57
65359;BME280;52491;45.900;6.346;2023-05-09T13:21:26;93519.31;;;25.31;37.69
65359;BME280;52491;45.900;6.346;2023-05-09T13:23:52;93516.09;;;25.29;37.42
65359;BME280;52491;45.900;6.346;2023-05-09T13:26:18;93511.84;;;25.28;37.36
65359;BME280;52491;45.900;6.346;2023-05-09T13:28:44;93517.19;;;25.28;37.38
65359;BME280;52491;45.900;6.346;2023-05-09T13:31:09;93511.84;;;25.28;37.64
65359;BME280;52491;45.900;6.346;2023-05-09T13:33:35;93510.75;;;25.29;37.83
65359;BME280;52491;45.900;6.346;2023-05-09T13:36:01;93515.31;;;25.28;37.58
65359;BME280;52491;45.900;6.346;2023-05-09T13:38:26;93519.84;;;25.28;37.47